createdAt,value
2024-01-30T00:02:10.001Z,-3.13
2024-01-30T00:05:12.759Z,-3.11
2024-01-30T00:08:15.398Z,-3.14
2024-01-30T00:11:18.010Z,-3.09
2024-01-30T00:14:20.655Z,-3.10
2024-01-30T00:17:23.341Z,-3.29
2024-01-30T00:20:26.006Z,-3.33
2024-01-30T00:23:28.531Z,-3.31
2024-01-30T00:26:31.143Z,-3.27
2024-01-30T00:29:35.108Z,-3.25
2024-01-30T00:32:38.019Z,-3.27
2024-01-30T00:35:40.639Z,-3.20
2024-01-30T00:38:43.355Z,-3.25
2024-01-30T00:41:45.986Z,-3.36
2024-01-30T00:44:48.562Z,-3.40
2024-01-30T00:47:51.156Z,-3.40
2024-01-30T00:50:53.830Z,-3.44
2024-01-30T00:53:56.730Z,-3.49
2024-01-30T00:56:59.288Z,-3.49
2024-01-30T01:00:01.920Z,-3.53
2024-01-30T01:03:04.670Z,-3.53
2024-01-30T01:06:07.324Z,-3.54
2024-01-30T01:09:09.813Z,-3.58
2024-01-30T01:12:12.348Z,-3.60
2024-01-30T01:15:14.900Z,-3.68
2024-01-30T01:18:17.587Z,-3.61
2024-01-30T01:21:20.067Z,-3.68
2024-01-30T01:24:22.646Z,-3.74
2024-01-30T01:27:25.164Z,-3.80
2024-01-30T01:30:27.860Z,-3.72
2024-01-30T01:33:30.447Z,-3.69
2024-01-30T01:36:33.039Z,-3.75
2024-01-30T01:39:35.598Z,-3.75
2024-01-30T01:42:38.460Z,-3.77
2024-01-30T01:45:41.126Z,-3.79
2024-01-30T01:48:44.588Z,-3.77
2024-01-30T01:51:49.420Z,-3.83
2024-01-30T01:54:52.144Z,-3.79
2024-01-30T01:57:55.309Z,-3.75
2024-01-30T02:01:00.108Z,-3.74
2024-01-30T02:04:02.684Z,-3.71
2024-01-30T02:07:05.493Z,-3.80
2024-01-30T02:10:10.585Z,-3.81
2024-01-30T02:13:13.323Z,-3.79
2024-01-30T02:16:16.012Z,-3.72
2024-01-30T02:19:18.651Z,-3.80
2024-01-30T02:22:22.737Z,-3.82
2024-01-30T02:25:35.207Z,-3.86
2024-01-30T02:28:37.870Z,-3.89
2024-01-30T02:31:40.389Z,-3.92
2024-01-30T02:34:43.341Z,-3.81
2024-01-30T02:37:46.018Z,-3.81
2024-01-30T02:40:48.513Z,-3.80
2024-01-30T02:43:51.158Z,-3.83
2024-01-30T02:46:55.414Z,-3.81
2024-01-30T02:49:58.087Z,-3.94
2024-01-30T02:53:00.796Z,-3.98
2024-01-30T02:56:04.183Z,-3.85
2024-01-30T02:59:06.773Z,-3.93
2024-01-30T03:02:09.432Z,-4.01
2024-01-30T03:05:12.097Z,-4.05
2024-01-30T03:08:14.805Z,-4.05
2024-01-30T03:11:17.430Z,-4.12
2024-01-30T03:14:20.011Z,-4.10
2024-01-30T03:17:22.836Z,-4.18
2024-01-30T03:20:25.469Z,-4.10
2024-01-30T03:23:28.019Z,-4.02
2024-01-30T03:26:30.590Z,-4.09
2024-01-30T03:29:33.085Z,-4.22
2024-01-30T03:32:35.743Z,-4.16
2024-01-30T03:35:38.292Z,-4.15
2024-01-30T03:38:40.766Z,-4.13
2024-01-30T03:41:44.631Z,-4.26
2024-01-30T03:44:47.329Z,-4.23
2024-01-30T03:47:50.529Z,-4.24
2024-01-30T03:50:53.076Z,-4.24
2024-01-30T03:53:55.681Z,-4.25
2024-01-30T03:56:58.153Z,-4.16
2024-01-30T04:00:03.281Z,-4.18
2024-01-30T04:03:16.830Z,-4.07
2024-01-30T04:06:19.565Z,-4.28
2024-01-30T04:09:22.060Z,-4.37
2024-01-30T04:12:24.508Z,-4.37
2024-01-30T04:15:27.404Z,-4.33
2024-01-30T04:18:30.542Z,-4.37
2024-01-30T04:21:33.046Z,-4.39
2024-01-30T04:24:35.710Z,-4.41
2024-01-30T04:27:38.456Z,-4.39
2024-01-30T04:30:41.150Z,-4.34
2024-01-30T04:33:43.853Z,-4.39
2024-01-30T04:36:47.257Z,-4.42
2024-01-30T04:39:49.862Z,-4.48
2024-01-30T04:42:52.526Z,-4.51
2024-01-30T04:45:55.169Z,-4.51
2024-01-30T04:48:57.844Z,-4.49
2024-01-30T04:52:00.455Z,-4.44
2024-01-30T04:55:03.171Z,-4.47
2024-01-30T04:58:05.851Z,-4.50
2024-01-30T05:01:08.574Z,-4.53
2024-01-30T05:04:15.804Z,-4.48
2024-01-30T05:07:19.793Z,-4.42
2024-01-30T05:10:22.423Z,-4.22
2024-01-30T05:13:25.048Z,-4.00
2024-01-30T05:16:27.735Z,-4.01
2024-01-30T05:19:30.454Z,-4.04
2024-01-30T05:22:33.046Z,-4.08
2024-01-30T05:25:35.674Z,-4.09
2024-01-30T05:28:38.896Z,-4.22
2024-01-30T05:31:41.485Z,-4.23
2024-01-30T05:34:44.076Z,-4.29
2024-01-30T05:37:46.662Z,-4.32
2024-01-30T05:40:49.193Z,-4.40
2024-01-30T05:43:51.732Z,-4.33
2024-01-30T05:46:54.622Z,-4.46
2024-01-30T05:49:57.375Z,-4.48
2024-01-30T05:52:59.978Z,-4.47
2024-01-30T05:56:03.553Z,-4.50
2024-01-30T05:59:06.084Z,-4.47
2024-01-30T06:02:08.732Z,-4.51
2024-01-30T06:05:11.562Z,-4.55
2024-01-30T06:08:14.055Z,-4.53
2024-01-30T06:11:16.649Z,-4.48
2024-01-30T06:14:19.210Z,-4.56
2024-01-30T06:17:21.742Z,-4.46
2024-01-30T06:20:24.406Z,-4.44
2024-01-30T06:23:26.979Z,-4.46
2024-01-30T06:26:29.592Z,-4.45
2024-01-30T06:29:32.169Z,-4.46
2024-01-30T06:32:35.713Z,-4.41
2024-01-30T06:35:44.591Z,-4.52
2024-01-30T06:38:47.606Z,-4.50
2024-01-30T06:41:50.558Z,-4.35
2024-01-30T06:44:53.231Z,-4.19
2024-01-30T06:47:55.765Z,-4.11
2024-01-30T06:50:59.156Z,-4.03
2024-01-30T06:54:01.755Z,-3.88
2024-01-30T06:57:04.590Z,-3.83
2024-01-30T07:00:07.713Z,-3.76
2024-01-30T07:03:10.314Z,-3.70
2024-01-30T07:06:13.218Z,-3.60
2024-01-30T07:09:15.885Z,-3.48
2024-01-30T07:12:21.172Z,-3.46
2024-01-30T07:15:23.807Z,-3.41
2024-01-30T07:18:26.455Z,-3.34
2024-01-30T07:21:29.692Z,-3.25
2024-01-30T07:24:32.466Z,-3.23
2024-01-30T07:27:35.033Z,-3.20
2024-01-30T07:30:37.793Z,-3.08
2024-01-30T07:33:40.509Z,-2.92
2024-01-30T07:36:43.204Z,-2.81
2024-01-30T07:39:46.069Z,-2.66
2024-01-30T07:42:50.645Z,-2.56
2024-01-30T07:45:53.344Z,-2.47
2024-01-30T07:48:57.058Z,-2.39
2024-01-30T07:51:59.834Z,-2.28
2024-01-30T07:55:05.185Z,-2.22
2024-01-30T07:58:08.062Z,-2.15
2024-01-30T08:01:10.933Z,-2.09
2024-01-30T08:04:13.930Z,-1.95
2024-01-30T08:07:16.966Z,-1.85
2024-01-30T08:10:20.187Z,-1.76
2024-01-30T08:13:23.536Z,-1.69
2024-01-30T08:16:26.367Z,-1.56
2024-01-30T08:19:29.180Z,-1.44
2024-01-30T08:22:32.191Z,-1.18
2024-01-30T08:25:34.875Z,-1.04
2024-01-30T08:28:37.544Z,-0.87
2024-01-30T08:31:40.375Z,-0.63
2024-01-30T08:34:43.457Z,-0.47
2024-01-30T08:37:46.337Z,-0.45
2024-01-30T08:40:48.957Z,-0.23
2024-01-30T08:43:51.616Z,-0.24
2024-01-30T08:46:55.225Z,-0.17
2024-01-30T08:49:59.043Z,-0.08
2024-01-30T08:53:02.150Z,0.02
2024-01-30T08:56:05.361Z,0.08
2024-01-30T08:59:09.410Z,0.11
2024-01-30T09:02:17.505Z,0.21
2024-01-30T09:05:20.280Z,0.30
2024-01-30T09:08:22.974Z,0.42
2024-01-30T09:11:25.745Z,0.69
2024-01-30T09:14:29.904Z,0.79
2024-01-30T09:17:36.601Z,1.00
2024-01-30T09:20:39.318Z,1.20
2024-01-30T09:23:41.842Z,1.21
2024-01-30T09:26:44.476Z,1.24
2024-01-30T09:29:47.104Z,1.30
2024-01-30T09:32:49.847Z,1.47
2024-01-30T09:35:52.573Z,1.52
2024-01-30T09:38:55.781Z,1.57
2024-01-30T09:42:13.098Z,1.73
2024-01-30T09:45:15.941Z,1.73
2024-01-30T09:48:18.668Z,1.92
2024-01-30T09:51:23.389Z,1.95
2024-01-30T09:54:26.047Z,2.03
2024-01-30T09:57:31.593Z,2.20
2024-01-30T10:00:34.217Z,2.27
2024-01-30T10:03:39.862Z,2.23
2024-01-30T10:06:43.584Z,2.23
2024-01-30T10:09:46.978Z,2.35
2024-01-30T10:12:50.052Z,2.66
2024-01-30T10:15:56.504Z,2.78
2024-01-30T10:18:59.292Z,2.71
2024-01-30T10:22:02.012Z,2.77
2024-01-30T10:25:07.811Z,2.80
2024-01-30T10:28:10.730Z,2.93
2024-01-30T10:31:19.977Z,3.07
2024-01-30T10:37:27.463Z,3.48
2024-01-30T10:40:33.333Z,3.49
2024-01-30T10:43:43.653Z,3.52
2024-01-30T10:46:53.074Z,3.65
2024-01-30T10:49:57.389Z,3.72
2024-01-30T10:53:01.428Z,3.91
2024-01-30T10:56:05.709Z,3.90
2024-01-30T10:59:11.977Z,3.99
2024-01-30T11:02:16.037Z,4.07
2024-01-30T11:05:32.875Z,4.05
2024-01-30T11:08:36.747Z,4.28
2024-01-30T11:12:02.472Z,4.18
2024-01-30T11:15:16.040Z,4.21
2024-01-30T11:18:26.673Z,4.32
2024-01-30T11:21:29.579Z,4.30
2024-01-30T11:24:43.409Z,4.20
2024-01-30T11:27:47.161Z,4.43
2024-01-30T11:30:52.017Z,4.53
2024-01-30T11:33:55.569Z,4.73
2024-01-30T11:37:00.546Z,4.84
2024-01-30T11:40:05.300Z,4.88
2024-01-30T11:43:10.263Z,4.79
2024-01-30T11:46:13.473Z,4.97
2024-01-30T11:49:18.656Z,5.00
2024-01-30T11:52:21.398Z,5.00
2024-01-30T11:55:25.445Z,5.12
2024-01-30T11:58:28.399Z,5.25
2024-01-30T12:01:33.574Z,5.52
2024-01-30T12:04:36.605Z,5.56
2024-01-30T12:07:39.465Z,5.61
2024-01-30T12:10:43.001Z,5.48
2024-01-30T12:13:46.205Z,5.55
2024-01-30T12:16:52.195Z,5.55
2024-01-30T12:20:08.132Z,5.57
2024-01-30T12:23:13.333Z,5.59
2024-01-30T12:26:16.362Z,5.82
2024-01-30T12:29:18.977Z,5.94
2024-01-30T12:32:24.029Z,5.96
2024-01-30T12:35:28.502Z,5.87
2024-01-30T12:38:31.956Z,5.95
2024-01-30T12:41:34.592Z,5.99
2024-01-30T12:44:37.200Z,6.19
2024-01-30T12:47:40.093Z,6.19
2024-01-30T12:50:43.380Z,6.36
2024-01-30T12:53:47.867Z,6.37
2024-01-30T12:56:50.648Z,6.28
2024-01-30T12:59:53.215Z,6.31
2024-01-30T13:02:56.011Z,6.42
2024-01-30T13:05:58.808Z,6.53
2024-01-30T13:09:01.645Z,6.91
2024-01-30T13:12:04.846Z,7.19
2024-01-30T13:15:07.719Z,7.33
2024-01-30T13:18:10.435Z,7.54
2024-01-30T13:21:13.007Z,7.55
2024-01-30T13:24:15.837Z,7.62
2024-01-30T13:27:18.971Z,7.63
2024-01-30T13:30:31.447Z,7.81
2024-01-30T13:33:34.587Z,7.74
2024-01-30T13:36:37.459Z,7.79
2024-01-30T13:39:42.596Z,8.18
2024-01-30T13:42:45.506Z,8.41
2024-01-30T13:45:50.591Z,8.50
2024-01-30T13:48:53.933Z,8.56
2024-01-30T13:52:00.289Z,8.38
2024-01-30T13:55:03.488Z,8.15
2024-01-30T13:58:06.314Z,8.39
2024-01-30T14:01:09.037Z,8.51
2024-01-30T14:04:13.880Z,8.21
2024-01-30T14:07:19.644Z,8.26
2024-01-30T14:10:22.366Z,8.71
2024-01-30T14:13:26.442Z,8.85
2024-01-30T14:16:30.141Z,8.61
2024-01-30T14:19:35.964Z,8.30
2024-01-30T14:22:38.603Z,8.46
2024-01-30T14:25:41.427Z,8.23
2024-01-30T14:28:47.424Z,7.98
2024-01-30T14:31:49.932Z,8.58
2024-01-30T14:34:53.819Z,8.40
2024-01-30T14:37:56.441Z,8.38
2024-01-30T14:40:59.262Z,7.53
2024-01-30T14:44:02.655Z,7.91
2024-01-30T14:47:05.828Z,7.82
2024-01-30T14:50:09.410Z,7.97
2024-01-30T14:53:12.561Z,8.05
2024-01-30T14:56:15.318Z,7.62
2024-01-30T14:59:18.152Z,6.97
2024-01-30T15:02:21.060Z,6.73
2024-01-30T15:05:23.879Z,6.56
2024-01-30T15:08:26.720Z,6.23
2024-01-30T15:11:29.282Z,6.13
2024-01-30T15:14:31.860Z,5.97
2024-01-30T15:17:34.658Z,5.85
2024-01-30T15:20:37.252Z,5.84
2024-01-30T15:23:39.968Z,5.61
2024-01-30T15:26:42.820Z,5.26
2024-01-30T15:29:45.424Z,4.93
2024-01-30T15:32:49.042Z,4.62
2024-01-30T15:35:51.676Z,4.38
2024-01-30T15:38:54.271Z,4.17
2024-01-30T15:41:56.851Z,4.03
2024-01-30T15:45:00.010Z,3.81
2024-01-30T15:48:02.560Z,3.58
2024-01-30T15:51:05.658Z,3.32
2024-01-30T15:54:08.348Z,3.07
2024-01-30T15:57:11.361Z,2.77
2024-01-30T16:00:15.061Z,2.51
2024-01-30T16:03:18.368Z,2.33
2024-01-30T16:06:21.384Z,2.04
2024-01-30T16:09:25.122Z,1.79
2024-01-30T16:12:28.657Z,1.59
2024-01-30T16:15:31.222Z,1.52
2024-01-30T16:18:34.506Z,1.41
2024-01-30T16:21:39.739Z,1.36
2024-01-30T16:24:42.569Z,1.24
2024-01-30T16:27:45.195Z,1.14
2024-01-30T16:30:47.858Z,0.90
2024-01-30T16:33:50.842Z,0.81
2024-01-30T16:36:53.626Z,0.72
2024-01-30T16:39:56.351Z,0.69
2024-01-30T16:42:58.984Z,0.54
2024-01-30T16:46:01.736Z,0.62
2024-01-30T16:49:04.639Z,0.51
2024-01-30T16:52:08.702Z,0.45
2024-01-30T16:55:11.336Z,0.42
2024-01-30T16:58:13.939Z,0.37
2024-01-30T17:01:16.717Z,0.33
2024-01-30T17:04:23.517Z,0.22
2024-01-30T17:07:26.721Z,0.20
2024-01-30T17:10:29.755Z,0.18
2024-01-30T17:13:32.439Z,0.07
2024-01-30T17:16:35.622Z,0.02
2024-01-30T17:19:38.867Z,0.06
2024-01-30T17:22:45.183Z,-0.06
2024-01-30T17:25:51.034Z,-0.17
2024-01-30T17:28:53.922Z,-0.21
2024-01-30T17:31:56.779Z,-0.22
2024-01-30T17:34:59.418Z,-0.19
2024-01-30T17:38:05.408Z,-0.32
2024-01-30T17:41:12.596Z,-0.35
2024-01-30T17:44:16.826Z,-0.31
2024-01-30T17:47:19.655Z,-0.40
2024-01-30T17:50:22.485Z,-0.52
2024-01-30T17:53:25.247Z,-0.51
2024-01-30T17:56:28.421Z,-0.50
2024-01-30T17:59:31.090Z,-0.53
2024-01-30T18:02:34.117Z,-0.49
2024-01-30T18:05:37.156Z,-0.53
2024-01-30T18:08:40.340Z,-0.61
2024-01-30T18:11:42.890Z,-0.69
2024-01-30T18:14:45.900Z,-0.72
2024-01-30T18:17:48.702Z,-0.71
2024-01-30T18:20:51.474Z,-0.81
2024-01-30T18:23:54.044Z,-0.93
2024-01-30T18:26:57.155Z,-1.04
2024-01-30T18:30:00.320Z,-1.01
2024-01-30T18:33:04.119Z,-1.05
2024-01-30T18:36:08.673Z,-1.06
2024-01-30T18:39:11.758Z,-1.13
2024-01-30T18:42:14.581Z,-1.19
2024-01-30T18:45:17.348Z,-1.24
2024-01-30T18:48:20.177Z,-1.22
2024-01-30T18:51:23.093Z,-1.17
2024-01-30T18:54:26.519Z,-1.18
2024-01-30T18:57:29.611Z,-1.17
2024-01-30T19:00:34.568Z,-1.27
2024-01-30T19:03:37.320Z,-1.31
2024-01-30T19:06:40.409Z,-1.37
2024-01-30T19:09:43.386Z,-1.41
2024-01-30T19:12:46.638Z,-1.38
2024-01-30T19:15:49.523Z,-1.46
2024-01-30T19:18:52.993Z,-1.33
2024-01-30T19:21:55.729Z,-1.46
2024-01-30T19:24:58.390Z,-1.50
2024-01-30T19:28:01.378Z,-1.59
2024-01-30T19:31:04.568Z,-1.57
2024-01-30T19:34:07.526Z,-1.58
2024-01-30T19:37:10.380Z,-1.62
2024-01-30T19:40:13.430Z,-1.70
2024-01-30T19:43:16.409Z,-1.66
2024-01-30T19:46:19.308Z,-1.73
2024-01-30T19:49:22.013Z,-1.72
2024-01-30T19:52:25.007Z,-1.86
2024-01-30T19:55:27.888Z,-1.92
2024-01-30T19:58:30.709Z,-1.92
2024-01-30T20:01:35.491Z,-1.87
2024-01-30T20:04:38.507Z,-1.91
2024-01-30T20:07:41.370Z,-1.93
2024-01-30T20:10:44.855Z,-1.94
2024-01-30T20:13:48.149Z,-2.03
2024-01-30T20:16:51.263Z,-2.06
2024-01-30T20:19:54.524Z,-2.09
2024-01-30T20:22:57.539Z,-2.04
2024-01-30T20:26:01.382Z,-2.05
2024-01-30T20:29:04.322Z,-2.17
2024-01-30T20:32:07.368Z,-2.20
2024-01-30T20:35:10.028Z,-2.06
2024-01-30T20:38:12.684Z,-2.06
2024-01-30T20:41:16.190Z,-2.14
2024-01-30T20:44:20.893Z,-2.18
2024-01-30T20:47:23.933Z,-2.25
2024-01-30T20:50:26.591Z,-2.19
2024-01-30T20:53:29.680Z,-2.20
2024-01-30T20:56:32.493Z,-2.24
2024-01-30T20:59:35.080Z,-2.18
2024-01-30T21:02:38.532Z,-2.25
2024-01-30T21:05:43.243Z,-2.35
2024-01-30T21:08:46.168Z,-2.34
2024-01-30T21:11:49.081Z,-2.47
2024-01-30T21:14:52.475Z,-2.50
2024-01-30T21:17:55.383Z,-2.53
2024-01-30T21:20:59.274Z,-2.52
2024-01-30T21:24:02.121Z,-2.60
2024-01-30T21:27:04.777Z,-2.62
2024-01-30T21:30:08.274Z,-2.61
2024-01-30T21:33:10.897Z,-2.65
2024-01-30T21:36:13.437Z,-2.79
2024-01-30T21:39:15.937Z,-2.71
2024-01-30T21:42:19.549Z,-2.70
2024-01-30T21:45:24.198Z,-2.67
2024-01-30T21:48:26.676Z,-2.76
2024-01-30T21:51:29.623Z,-2.73
2024-01-30T21:54:32.665Z,-2.79
2024-01-30T21:57:35.319Z,-2.89
2024-01-30T22:00:37.854Z,-2.92
2024-01-30T22:03:42.304Z,-3.02
2024-01-30T22:06:45.421Z,-2.97
2024-01-30T22:09:47.997Z,-3.06
2024-01-30T22:12:50.641Z,-3.08
2024-01-30T22:15:53.278Z,-3.10
2024-01-30T22:18:56.097Z,-3.09
2024-01-30T22:21:58.752Z,-3.00
2024-01-30T22:25:01.529Z,-3.07
2024-01-30T22:28:04.624Z,-3.08
2024-01-30T22:31:07.282Z,-3.08
2024-01-30T22:34:09.876Z,-3.12
2024-01-30T22:37:12.521Z,-3.12
2024-01-30T22:40:15.275Z,-3.20
2024-01-30T22:43:17.861Z,-3.26
2024-01-30T22:46:21.177Z,-3.26
2024-01-30T22:49:24.006Z,-3.28
2024-01-30T22:52:26.873Z,-3.42
2024-01-30T22:55:29.605Z,-3.41
2024-01-30T22:58:32.402Z,-3.45
2024-01-30T23:01:35.161Z,-3.38
2024-01-30T23:04:37.980Z,-3.25
2024-01-30T23:07:41.845Z,-3.34
2024-01-30T23:10:44.536Z,-3.44
2024-01-30T23:13:47.095Z,-3.47
2024-01-30T23:16:49.629Z,-3.41
2024-01-30T23:19:52.177Z,-3.47
2024-01-30T23:22:54.723Z,-3.55
2024-01-30T23:25:57.283Z,-3.54
2024-01-30T23:28:59.885Z,-3.56
2024-01-30T23:32:02.368Z,-3.59
2024-01-30T23:35:05.967Z,-3.67
2024-01-30T23:38:08.720Z,-3.73
2024-01-30T23:41:11.229Z,-3.72
2024-01-30T23:44:13.886Z,-3.73
2024-01-30T23:47:16.380Z,-3.67
2024-01-30T23:50:18.972Z,-3.54
2024-01-30T23:53:21.524Z,-3.62
2024-01-30T23:56:24.159Z,-3.70
2024-01-30T23:59:26.706Z,-3.65
